• Join FlightAware (Why Join?)
  • Login
  • US Flag 
03:33AM EDT


 

Airport Tracker/Info


-or-


 

Live Flight TrackerFlight Track Log ✈ SWA1034 ✈ 13-Jul-2013 ✈ KMCO - KBNA

Flight Track Log - Related Links

Times and Time Zones

All times are in EDT time to prevent confusion due to time zone crossing. See the SWA1034 flight status page for this flight to view local times or setup timezone preferences in your user account.

Time Position Orientation Groundspeed Altitude Reporting Facility
EDT Latitude Longitude Course Direction KTS MPH feet Rate Location/Type
08:42PM 28.3833 -81.3167 188° South 170 196 2,700  Level Orlando TRACON
08:43PM 28.3500 -81.3500 221° Southwest 213 245 6,300 3,300 Climbing Orlando TRACON
08:45PM 28.3700 -81.5031 278° West 238 274 13,000 2,760 Climbing Jacksonville Center
08:46PM 28.3792 -81.5997 276° West 273 314 15,200 2,580 Climbing Jacksonville Center
08:47PM 28.3908 -81.7106 277° West 321 369 18,200 3,480 Climbing Jacksonville Center
08:48PM 28.4022 -81.8400 276° West 361 415 22,200 3,300 Climbing Jacksonville Center
08:49PM 28.4219 -81.9650 280° West 383 441 24,900 2,520 Climbing Jacksonville Center
08:50PM 28.5206 -82.0372 327° Northwest 381 438 27,300 2,220 Climbing Jacksonville Center
08:51PM 28.6378 -82.0861 340° North 389 448 29,400 1,980 Climbing Jacksonville Center
08:52PM 28.7592 -82.1394 339° North 422 486 31,300 1,980 Climbing Jacksonville Center
08:53PM 28.8828 -82.1978 338° Northwest 454 522 33,400 1,320 Climbing Jacksonville Center
08:54PM 29.0039 -82.2492 340° North 463 533 34,000 300 Climbing Jacksonville Center
08:55PM 29.1275 -82.3056 338° Northwest 468 539 34,000  Level Jacksonville Center
08:56PM 29.2486 -82.3569 340° North 473 544 34,000  Level Jacksonville Center
08:57PM 29.3719 -82.4158 337° Northwest 473 544 34,000 780 Level Jacksonville Center
08:58PM 29.4914 -82.4678 339° North 473 544 35,600 1,800 Climbing Jacksonville Center
08:59PM 29.6125 -82.5222 339° North 473 544 37,700 1,500 Climbing Jacksonville Center
09:00PM 29.7317 -82.5769 338° Northwest 473 544 38,600 1,140 Climbing Jacksonville Center
09:01PM 29.8403 -82.6267 338° Northwest 473 544 40,000 660 Climbing Jacksonville Center
09:02PM 29.9594 -82.6864 337° Northwest 473 544 40,000  Level Jacksonville Center
09:03PM 30.0806 -82.7367 340° North 468 539 40,000  Level Jacksonville Center
09:04PM 30.1997 -82.7892 339° North 457 526 40,000  Level Jacksonville Center
09:05PM 30.3144 -82.8444 337° Northwest 457 526 40,000  Level Jacksonville Center
09:06PM 30.4294 -82.8975 338° Northwest 457 526 40,000  Level Jacksonville Center
09:07PM 30.5506 -82.9528 339° North 457 526 40,000  Level Jacksonville Center
09:08PM 30.6672 -83.0061 339° North 457 526 40,000  Level Jacksonville Center
09:09PM 30.7864 -83.0619 338° Northwest 457 526 40,000  Level Jacksonville Center
09:10PM 30.9136 -83.1250 337° Northwest 457 526 40,000  Level Jacksonville Center
09:11PM 31.0325 -83.1811 338° Northwest 457 526 40,000  Level Jacksonville Center
09:12PM 31.1514 -83.2350 339° North 457 526 40,000  Level Jacksonville Center
09:14PM 31.3397 -83.3264 337° Northwest 455 524 40,000  Level Atlanta Center
09:15PM 31.4611 -83.3817 339° North 455 524 40,000  Level Atlanta Center
09:16PM 31.5803 -83.4367 339° North 455 524 40,000  Level Atlanta Center
09:17PM 31.7036 -83.4944 338° Northwest 455 524 40,000  Level Atlanta Center
09:18PM 31.8250 -83.5525 338° Northwest 462 532 40,000  Level Atlanta Center
09:19PM 31.9461 -83.6131 337° Northwest 462 532 40,000  Level Atlanta Center
09:20PM 32.0675 -83.6689 339° North 462 532 40,000  Level Atlanta Center
09:21PM 32.1844 -83.7297 336° Northwest 456 525 40,000  Level Atlanta Center
09:22PM 32.3058 -83.7881 338° Northwest 456 525 40,000  Level Atlanta Center
09:23PM 32.4269 -83.8444 339° North 456 525 40,000  Level Atlanta Center
09:24PM 32.5439 -83.9033 337° Northwest 456 525 40,000  Level Atlanta Center
09:25PM 32.6669 -83.9647 337° Northwest 456 525 40,000  Level Atlanta Center
09:26PM 32.7881 -84.0239 338° Northwest 456 525 40,000  Level Atlanta Center
09:27PM 32.9092 -84.0808 338° Northwest 456 525 40,000  Level Atlanta Center
09:28PM 33.0322 -84.1403 338° Northwest 456 525 40,000  Level Atlanta Center
09:29PM 33.1533 -84.2025 337° Northwest 462 532 40,000  Level Atlanta Center
09:30PM 33.2764 -84.2625 338° Northwest 474 545 40,000  Level Atlanta Center
09:31PM 33.3994 -84.3225 338° Northwest 474 545 40,000  Level Atlanta Center
09:32PM 33.5244 -84.3853 337° Northwest 474 545 40,000  Level Atlanta Center
09:33PM 33.6600 -84.4506 338° Northwest 474 545 40,000  Level Atlanta Center
09:34PM 33.7831 -84.5061 339° North 474 545 40,000  Level Atlanta Center
09:35PM 33.9122 -84.5669 339° North 479 551 40,000  Level Atlanta Center
09:36PM 34.0392 -84.6203 341° North 479 551 40,000  Level Atlanta Center
09:37PM 34.1600 -84.6714 341° North 497 572 40,000  Level Atlanta Center
09:38PM 34.2828 -84.7328 338° Northwest 497 572 40,000  Level Atlanta Center
09:39PM 34.3969 -84.8192 328° Northwest 475 547 40,000  Level Atlanta Center
09:40PM 34.5092 -84.9058 328° Northwest 480 552 40,000 -720 Level Atlanta Center
09:41PM 34.6214 -84.9878 329° Northwest 480 552 38,600 -2,100 Descending Atlanta Center
09:42PM 34.7414 -85.0853 326° Northwest 472 543 35,800 -2,820 Descending Atlanta Center
09:43PM 34.8533 -85.1728 327° Northwest 472 543 33,000 -2,340 Descending Atlanta Center
09:45PM 35.0922 -85.3578 328° Northwest 472 543 28,100 -2,160 Descending Memphis Center
09:46PM 35.1897 -85.4458 324° Northwest 453 521 26,000 -2,160 Descending Memphis Center
09:47PM 35.2708 -85.5506 314° West 432 497 23,800 -2,220 Descending Memphis Center
09:48PM 35.3497 -85.6503 314° West 419 482 21,600 -1,980 Descending Memphis Center
09:49PM 35.4242 -85.7456 314° West 404 465 19,900 -1,980 Descending Memphis Center
09:50PM 35.4944 -85.8383 313° West 386 444 17,700 -2,700 Descending Memphis Center
09:51PM 35.5708 -85.9339 315° West 386 444 14,500 -3,180 Descending Memphis Center
09:52PM 35.6411 -86.0297 312° West 386 444 11,400 -1,800 Descending Memphis Center
09:53PM 35.7067 -86.1208 312° West 367 422 11,000 -780 Descending Memphis Center
09:54PM 35.7639 -86.2075 309° West 336 387 9,900 -1,440 Descending Memphis Center
09:55PM 35.8125 -86.2894 306° West 306 352 8,200 -1,740 Descending Memphis Center
09:56PM 35.8694 -86.3789 308° West 306 352 6,500 -1,680 Descending Memphis Center
09:57PM 35.9017 -86.4694 294° West 295 339 4,900 -1,260 Descending Memphis Center
09:58PM 35.9375 -86.5525 298° West 282 325 4,000 -480 Descending Memphis Center
09:59PM 35.9669 -86.6256 296° West 263 303 4,000 -600 Level Memphis Center
10:00PM 35.9936 -86.6858 299° West 222 255 2,900 -960 Descending Memphis Center
10:01PM 36.0239 -86.7178 320° Northwest 172 198 2,100 -720 Descending Memphis Center
10:02PM 36.0589 -86.7061 15° North 112 129 1,500 -660 Descending Memphis Center
10:03PM 36.0919 -86.6917 19° North 112 129 800 -420 Descending Memphis Center
10:04PM 36.1208 -86.6828 14° North 112 129 700 -120 Descending Memphis Center
10:06PM 36.1245 -86.6782 345° North  Level Estimated
10:13PM 36.1245 -86.6782 345° North  Level Estimated
10:14PM 36.1245 -86.6782 345° North  Level Estimated
10:15PM 36.1245 -86.6782 345° North  Level Estimated
10:16PM 36.1245 -86.6782 345° North  Level Estimated
10:17PM 36.1245 -86.6782 345° North  Level Estimated
10:18PM 36.1245 -86.6782 345° North  Level Estimated
10:19PM 36.1245 -86.6782 345° North  Level Estimated
10:20PM 36.1245 -86.6782 345° North  Level Estimated